Jock — WDF2423 — position and weather

sailwx.info

Track history (hours):
 
Tides and Currents Weather Stations Pressure Air Temp Water Temp Dewpoint Dewpoint Depression Visibility Wind Speed Wind Dir Waves Ship Positions

Jock

Owner: Enterprise Marine Services, LLC, San Antonio, TX. More information available from US FCC via Universal Licensing System and Coast Guard Vessel Documentation Center.

Last reported at 2018-Feb-22 15:18 UTC. Time now 2018-Feb-24 16:24 UTC.
Position N 29°34' W 090°29'.

Length 28 m; draft 3 m.

Type: Tug. MMSI: 367003460.

Date/timePositionNaut miles runAvg speedWind from/ knotsBaromVisibWave heightAir tempDewpointWater temp
2018-Feb-22 15:18N 29°34' W 090°29'1 4.9
2018-Feb-22 15:00N 29°34' W 090°31'2 4.7
2018-Feb-22 14:30N 29°34' W 090°33'2 4.7
2018-Feb-22 14:00N 29°35' W 090°36'2 4.2
2018-Feb-22 13:30N 29°35' W 090°38'2 3.5
2018-Feb-22 13:00N 29°36' W 090°40'2 4.5
2018-Feb-22 12:30N 29°37' W 090°42'2 4.6
2018-Feb-22 12:00N 29°34' W 090°43'1 2.6
2018-Feb-22 11:30N 29°34' W 090°44'3 5.1
2018-Feb-22 11:00N 29°32' W 090°47'3 6.5
2018-Feb-22 10:30N 29°32' W 090°50'61 4.7
2018-Feb-21 21:30N 29°50' W 091°58'3 6.2
2018-Feb-21 21:00N 29°49' W 092°01'3 5.9
2018-Feb-21 20:30N 29°48' W 092°04'3 6.1
2018-Feb-21 20:00N 29°47' W 092°08'3 5.7
2018-Feb-21 19:30N 29°47' W 092°11'1 2.9
2018-Feb-21 19:00N 29°47' W 092°13'2 3.0
2018-Feb-21 18:30N 29°48' W 092°14'3 6.0
2018-Feb-21 18:00N 29°49' W 092°17'4 5.7
2018-Feb-21 17:18N 29°51' W 092°22'42 5.5
2018-Feb-21 09:42N 29°56' W 093°10'1 4.8
2018-Feb-21 09:30N 29°57' W 093°10'3 5.6
2018-Feb-21 09:00N 29°59' W 093°12'3 5.4
2018-Feb-21 08:30N 30°01' W 093°14'2 4.8
2018-Feb-21 08:00N 30°03' W 093°16'2 5.0
2018-Feb-21 07:30N 30°05' W 093°18'1 2.4
2018-Feb-21 06:59N 30°06' W 093°19'2 3.1
2018-Feb-21 06:30N 30°05' W 093°20'2 4.7
2018-Feb-21 06:00N 30°04' W 093°22'3 5.1
2018-Feb-21 05:30N 30°04' W 093°25'3 5.5
2018-Feb-21 05:00N 30°04' W 093°28'3 5.7
2018-Feb-21 04:30N 30°04' W 093°31'8 6.0
2018-Feb-21 03:06N 30°03' W 093°41'1 5.9
2018-Feb-21 02:58N 30°03' W 093°42'3 5.2
2018-Feb-21 02:29N 30°02' W 093°44'3 6.7
2018-Feb-21 02:00N 29°60' W 093°47'3 6.8
2018-Feb-21 01:30N 29°58' W 093°51'3 6.6
2018-Feb-21 01:00N 29°56' W 093°53'4 7.1
2018-Feb-21 00:31N 29°53' W 093°55'3 6.5
2018-Feb-21 00:00N 29°50' W 093°57'0 0.8
2018-Feb-20 23:30N 29°50' W 093°58'0 0.0
2018-Feb-20 23:00N 29°50' W 093°58'0 0.0
2018-Feb-20 22:30N 29°50' W 093°58'0 0.5
2018-Feb-20 22:00N 29°50' W 093°58'0 0.0
2018-Feb-20 21:30N 29°50' W 093°58'0 0.0
2018-Feb-20 21:00N 29°50' W 093°58'0 0.0
2018-Feb-20 20:30N 29°50' W 093°58'0 0.0
2018-Feb-20 20:00N 29°50' W 093°58'0 0.5
2018-Feb-20 19:30N 29°50' W 093°58'0 0.0
2018-Feb-20 19:00N 29°50' W 093°58'0 0.0
2018-Feb-20 18:30N 29°50' W 093°58'0 0.0
2018-Feb-20 18:00N 29°50' W 093°58'0 0.0
2018-Feb-20 17:30N 29°50' W 093°58'0 0.0
2018-Feb-20 17:00N 29°50' W 093°58'0 0.0
2018-Feb-20 16:30N 29°50' W 093°58'0 0.0
2018-Feb-20 16:00N 29°50' W 093°58'0 0.0
2018-Feb-20 15:30N 29°50' W 093°58'0 0.0
2018-Feb-20 15:00N 29°50' W 093°58'0 0.0
2018-Feb-20 14:30N 29°50' W 093°58'0 0.0
2018-Feb-20 14:00N 29°50' W 093°58'0 0.0
2018-Feb-20 13:30N 29°50' W 093°58'0 0.0
2018-Feb-20 13:00N 29°50' W 093°58'0 0.0
2018-Feb-20 12:30N 29°50' W 093°58'0 0.0
2018-Feb-20 12:00N 29°50' W 093°58'0 0.0
2018-Feb-20 11:30N 29°50' W 093°58'0 0.0
2018-Feb-20 11:01N 29°50' W 093°58'0 0.0
2018-Feb-20 10:30N 29°50' W 093°58'0 0.0
2018-Feb-20 10:00N 29°50' W 093°58'0 0.0
2018-Feb-20 09:30N 29°50' W 093°58'0 0.0
2018-Feb-20 09:00N 29°50' W 093°58'0 0.0
2018-Feb-20 08:30N 29°50' W 093°58'0 0.0
2018-Feb-20 08:00N 29°50' W 093°58'0 0.2
2018-Feb-20 07:30N 29°50' W 093°58'0 0.0
2018-Feb-20 07:00N 29°50' W 093°58'0 0.0
2018-Feb-20 06:30N 29°50' W 093°58'0 0.0
2018-Feb-20 06:00N 29°50' W 093°58'0 0.0
2018-Feb-20 05:30N 29°50' W 093°58'0 0.0
2018-Feb-20 05:00N 29°50' W 093°58'0 0.0
2018-Feb-20 04:30N 29°50' W 093°58'0 0.0
2018-Feb-20 04:00N 29°50' W 093°58'0 0.0
2018-Feb-20 03:30N 29°50' W 093°58'0 0.0
2018-Feb-20 03:00N 29°50' W 093°58'0 0.0
2018-Feb-20 02:30N 29°50' W 093°58'0 0.0
2018-Feb-20 02:00N 29°50' W 093°58'0 0.0
2018-Feb-20 01:30N 29°50' W 093°58'0 0.0
2018-Feb-20 01:00N 29°50' W 093°58'0 0.0
2018-Feb-20 00:30N 29°50' W 093°58'0 0.0
2018-Feb-20 00:00N 29°50' W 093°58'0 0.0
2018-Feb-19 23:30N 29°50' W 093°58'0 0.0
2018-Feb-19 23:00N 29°50' W 093°58'0 0.0
2018-Feb-19 22:30N 29°50' W 093°58'0 0.0
2018-Feb-19 22:00N 29°50' W 093°58'0 0.0
2018-Feb-19 21:30N 29°50' W 093°58'0 0.0
2018-Feb-19 21:00N 29°50' W 093°58'0 0.0
2018-Feb-19 20:30N 29°50' W 093°58'0 0.0
2018-Feb-19 20:00N 29°50' W 093°58'0 0.0
2018-Feb-19 19:30N 29°50' W 093°58'0 0.0
2018-Feb-19 19:00N 29°50' W 093°58'0 0.0
2018-Feb-19 18:29N 29°50' W 093°58'0 0.0
2018-Feb-19 17:59N 29°50' W 093°58'0 0.1
2018-Feb-19 17:30N 29°50' W 093°58'1 1.1
2018-Feb-19 17:00N 29°50' W 093°57'4 7.3
2018-Feb-19 16:30N 29°53' W 093°55'4 7.1
2018-Feb-19 16:00N 29°56' W 093°52'3 5.8
2018-Feb-19 15:30N 29°59' W 093°50'3 5.6
2018-Feb-19 15:00N 29°60' W 093°47'3 5.9
2018-Feb-19 14:30N 30°01' W 093°45'3 5.3
2018-Feb-19 14:00N 30°03' W 093°42'2 4.7
2018-Feb-19 13:30N 30°04' W 093°40'3 5.3
2018-Feb-19 13:00N 30°04' W 093°37'3 5.4
2018-Feb-19 12:30N 30°04' W 093°33'3 5.4
2018-Feb-19 12:00N 30°04' W 093°30'3 5.3
2018-Feb-19 11:30N 30°04' W 093°27'3 5.4
2018-Feb-19 11:00N 30°04' W 093°24'2 4.4
2018-Feb-19 10:30N 30°04' W 093°22'2 4.5
2018-Feb-19 10:00N 30°05' W 093°20'2 3.2
2018-Feb-19 09:29N 30°06' W 093°18'0 0.1
2018-Feb-19 09:00N 30°06' W 093°18'0 0.0
2018-Feb-19 08:30N 30°06' W 093°18'0 0.0
2018-Feb-19 08:00N 30°06' W 093°18'0 0.0
2018-Feb-19 07:30N 30°06' W 093°18'0 0.0
2018-Feb-19 06:59N 30°06' W 093°18'0 0.0
2018-Feb-19 06:30N 30°06' W 093°18'0 0.0
2018-Feb-19 06:00N 30°06' W 093°18'0 0.0
2018-Feb-19 05:30N 30°06' W 093°18'0 0.0
2018-Feb-19 05:00N 30°06' W 093°18'0 0.0
2018-Feb-19 04:30N 30°06' W 093°18'0 0.0
2018-Feb-19 04:00N 30°06' W 093°18'0 0.0
2018-Feb-19 03:28N 30°06' W 093°18'0 0.0
2018-Feb-19 03:00N 30°06' W 093°18'0 0.0
2018-Feb-19 02:30N 30°06' W 093°18'0 0.0
2018-Feb-19 02:00N 30°06' W 093°18'1 1.8
2018-Feb-19 01:30N 30°05' W 093°18'2 3.4
2018-Feb-19 01:00N 30°04' W 093°16'0 0.0
2018-Feb-19 00:30N 30°04' W 093°16'1 1.4
2018-Feb-19 00:00N 30°04' W 093°16'2 4.9
2018-Feb-18 23:30N 30°02' W 093°14'3 5.5
2018-Feb-18 23:00N 29°59' W 093°13'3 5.8
2018-Feb-18 22:30N 29°57' W 093°10'3 5.2
2018-Feb-18 22:00N 29°56' W 093°08'40 4.9
2018-Feb-18 13:49N 29°51' W 092°22'1 4.6
2018-Feb-18 13:30N 29°51' W 092°20'1 2.5
2018-Feb-18 12:55N 29°50' W 092°18'1 3.0
2018-Feb-18 12:30N 29°49' W 092°17'2 4.0
2018-Feb-18 12:00N 29°48' W 092°15'2 3.6
2018-Feb-18 11:30N 29°48' W 092°14'2 3.3
2018-Feb-18 11:00N 29°47' W 092°12'2 4.3
2018-Feb-18 10:30N 29°47' W 092°09'2 4.3
2018-Feb-18 10:00N 29°47' W 092°07'2 4.3
2018-Feb-18 09:30N 29°48' W 092°05'2 4.0
2018-Feb-18 09:00N 29°49' W 092°02'1 2.5
2018-Feb-18 08:25N 29°49' W 092°01'0 0.0
2018-Feb-18 07:42N 29°49' W 092°01'0 0.0
2018-Feb-18 06:03N 29°49' W 092°01'0 0.2
2018-Feb-18 05:59N 29°49' W 092°01'0 0.0
2018-Feb-18 05:30N 29°49' W 092°01'60 4.5
2018-Feb-17 16:13N 29°33' W 090°55'2 5.4
2018-Feb-17 15:55N 29°32' W 090°53'2 5.2
2018-Feb-17 15:30N 29°32' W 090°51'3 5.3
2018-Feb-17 15:00N 29°32' W 090°47'2 4.6
2018-Feb-17 14:30N 29°33' W 090°45'2 4.3
2018-Feb-17 14:00N 29°34' W 090°43'2 3.5
2018-Feb-17 13:30N 29°36' W 090°43'2 3.7
2018-Feb-17 13:00N 29°36' W 090°41'0 0.9
2018-Feb-17 12:30N 29°36' W 090°40'0 0.0
2018-Feb-17 12:00N 29°36' W 090°40'0 0.0
2018-Feb-17 11:30N 29°36' W 090°40'0 0.0
2018-Feb-17 11:00N 29°36' W 090°40'0 0.0
2018-Feb-17 10:30N 29°36' W 090°40'0 0.0
2018-Feb-17 10:00N 29°36' W 090°40'0 0.0
2018-Feb-17 09:30N 29°36' W 090°40'0 0.0
2018-Feb-17 09:00N 29°36' W 090°40'0 0.0
2018-Feb-17 08:30N 29°36' W 090°40'0 0.0
2018-Feb-17 08:00N 29°36' W 090°40'0 0.0
2018-Feb-17 07:30N 29°36' W 090°40'0 0.0
2018-Feb-17 07:00N 29°36' W 090°40'0 0.0
2018-Feb-17 06:30N 29°36' W 090°40'0 0.0
2018-Feb-17 06:00N 29°36' W 090°40'0 0.0
2018-Feb-17 05:30N 29°36' W 090°40'1 1.5
2018-Feb-17 05:00N 29°36' W 090°39'2 5.0
2018-Feb-17 04:30N 29°35' W 090°37'3 4.8
2018-Feb-17 03:59N 29°34' W 090°34'2 4.9
2018-Feb-17 03:30N 29°34' W 090°31'  
Track history (hours):
 
Tides and Currents Weather Stations Pressure Air Temp Water Temp Dewpoint Dewpoint Depression Visibility Wind Speed Wind Dir Waves Ship Positions

Jock

Owner: Enterprise Marine Services, LLC, San Antonio, TX. More information available from US FCC via Universal Licensing System and Coast Guard Vessel Documentation Center.

Last reported at 2018-Feb-22 15:18 UTC. Time now 2018-Feb-24 16:24 UTC.
Position N 29°34' W 090°29'.

Length 28 m; draft 3 m.

Type: Tug. MMSI: 367003460.

Date/timePositionNaut miles runAvg speedWind from/ knotsBaromVisibWave heightAir tempDewpointWater temp
2018-Feb-22 15:18N 29°34' W 090°29'1 4.9
2018-Feb-22 15:00N 29°34' W 090°31'2 4.7
2018-Feb-22 14:30N 29°34' W 090°33'2 4.7
2018-Feb-22 14:00N 29°35' W 090°36'2 4.2
2018-Feb-22 13:30N 29°35' W 090°38'2 3.5
2018-Feb-22 13:00N 29°36' W 090°40'2 4.5
2018-Feb-22 12:30N 29°37' W 090°42'2 4.6
2018-Feb-22 12:00N 29°34' W 090°43'1 2.6
2018-Feb-22 11:30N 29°34' W 090°44'3 5.1
2018-Feb-22 11:00N 29°32' W 090°47'3 6.5
2018-Feb-22 10:30N 29°32' W 090°50'61 4.7
2018-Feb-21 21:30N 29°50' W 091°58'3 6.2
2018-Feb-21 21:00N 29°49' W 092°01'3 5.9
2018-Feb-21 20:30N 29°48' W 092°04'3 6.1
2018-Feb-21 20:00N 29°47' W 092°08'3 5.7
2018-Feb-21 19:30N 29°47' W 092°11'1 2.9
2018-Feb-21 19:00N 29°47' W 092°13'2 3.0
2018-Feb-21 18:30N 29°48' W 092°14'3 6.0
2018-Feb-21 18:00N 29°49' W 092°17'4 5.7
2018-Feb-21 17:18N 29°51' W 092°22'42 5.5
2018-Feb-21 09:42N 29°56' W 093°10'1 4.8
2018-Feb-21 09:30N 29°57' W 093°10'3 5.6
2018-Feb-21 09:00N 29°59' W 093°12'3 5.4
2018-Feb-21 08:30N 30°01' W 093°14'2 4.8
2018-Feb-21 08:00N 30°03' W 093°16'2 5.0
2018-Feb-21 07:30N 30°05' W 093°18'1 2.4
2018-Feb-21 06:59N 30°06' W 093°19'2 3.1
2018-Feb-21 06:30N 30°05' W 093°20'2 4.7
2018-Feb-21 06:00N 30°04' W 093°22'3 5.1
2018-Feb-21 05:30N 30°04' W 093°25'3 5.5
2018-Feb-21 05:00N 30°04' W 093°28'3 5.7
2018-Feb-21 04:30N 30°04' W 093°31'8 6.0
2018-Feb-21 03:06N 30°03' W 093°41'1 5.9
2018-Feb-21 02:58N 30°03' W 093°42'3 5.2
2018-Feb-21 02:29N 30°02' W 093°44'3 6.7
2018-Feb-21 02:00N 29°60' W 093°47'3 6.8
2018-Feb-21 01:30N 29°58' W 093°51'3 6.6
2018-Feb-21 01:00N 29°56' W 093°53'4 7.1
2018-Feb-21 00:31N 29°53' W 093°55'3 6.5
2018-Feb-21 00:00N 29°50' W 093°57'0 0.8
2018-Feb-20 23:30N 29°50' W 093°58'0 0.0
2018-Feb-20 23:00N 29°50' W 093°58'0 0.0
2018-Feb-20 22:30N 29°50' W 093°58'0 0.5
2018-Feb-20 22:00N 29°50' W 093°58'0 0.0
2018-Feb-20 21:30N 29°50' W 093°58'0 0.0
2018-Feb-20 21:00N 29°50' W 093°58'0 0.0
2018-Feb-20 20:30N 29°50' W 093°58'0 0.0
2018-Feb-20 20:00N 29°50' W 093°58'0 0.5
2018-Feb-20 19:30N 29°50' W 093°58'0 0.0
2018-Feb-20 19:00N 29°50' W 093°58'0 0.0
2018-Feb-20 18:30N 29°50' W 093°58'0 0.0
2018-Feb-20 18:00N 29°50' W 093°58'0 0.0
2018-Feb-20 17:30N 29°50' W 093°58'0 0.0
2018-Feb-20 17:00N 29°50' W 093°58'0 0.0
2018-Feb-20 16:30N 29°50' W 093°58'0 0.0
2018-Feb-20 16:00N 29°50' W 093°58'0 0.0
2018-Feb-20 15:30N 29°50' W 093°58'0 0.0
2018-Feb-20 15:00N 29°50' W 093°58'0 0.0
2018-Feb-20 14:30N 29°50' W 093°58'0 0.0
2018-Feb-20 14:00N 29°50' W 093°58'0 0.0
2018-Feb-20 13:30N 29°50' W 093°58'0 0.0
2018-Feb-20 13:00N 29°50' W 093°58'0 0.0
2018-Feb-20 12:30N 29°50' W 093°58'0 0.0
2018-Feb-20 12:00N 29°50' W 093°58'0 0.0
2018-Feb-20 11:30N 29°50' W 093°58'0 0.0
2018-Feb-20 11:01N 29°50' W 093°58'0 0.0
2018-Feb-20 10:30N 29°50' W 093°58'0 0.0
2018-Feb-20 10:00N 29°50' W 093°58'0 0.0
2018-Feb-20 09:30N 29°50' W 093°58'0 0.0
2018-Feb-20 09:00N 29°50' W 093°58'0 0.0
2018-Feb-20 08:30N 29°50' W 093°58'0 0.0
2018-Feb-20 08:00N 29°50' W 093°58'0 0.2
2018-Feb-20 07:30N 29°50' W 093°58'0 0.0
2018-Feb-20 07:00N 29°50' W 093°58'0 0.0
2018-Feb-20 06:30N 29°50' W 093°58'0 0.0
2018-Feb-20 06:00N 29°50' W 093°58'0 0.0
2018-Feb-20 05:30N 29°50' W 093°58'0 0.0
2018-Feb-20 05:00N 29°50' W 093°58'0 0.0
2018-Feb-20 04:30N 29°50' W 093°58'0 0.0
2018-Feb-20 04:00N 29°50' W 093°58'0 0.0
2018-Feb-20 03:30N 29°50' W 093°58'0 0.0
2018-Feb-20 03:00N 29°50' W 093°58'0 0.0
2018-Feb-20 02:30N 29°50' W 093°58'0 0.0
2018-Feb-20 02:00N 29°50' W 093°58'0 0.0
2018-Feb-20 01:30N 29°50' W 093°58'0 0.0
2018-Feb-20 01:00N 29°50' W 093°58'0 0.0
2018-Feb-20 00:30N 29°50' W 093°58'0 0.0
2018-Feb-20 00:00N 29°50' W 093°58'0 0.0
2018-Feb-19 23:30N 29°50' W 093°58'0 0.0
2018-Feb-19 23:00N 29°50' W 093°58'0 0.0
2018-Feb-19 22:30N 29°50' W 093°58'0 0.0
2018-Feb-19 22:00N 29°50' W 093°58'0 0.0
2018-Feb-19 21:30N 29°50' W 093°58'0 0.0
2018-Feb-19 21:00N 29°50' W 093°58'0 0.0
2018-Feb-19 20:30N 29°50' W 093°58'0 0.0
2018-Feb-19 20:00N 29°50' W 093°58'0 0.0
2018-Feb-19 19:30N 29°50' W 093°58'0 0.0
2018-Feb-19 19:00N 29°50' W 093°58'0 0.0
2018-Feb-19 18:29N 29°50' W 093°58'0 0.0
2018-Feb-19 17:59N 29°50' W 093°58'0 0.1
2018-Feb-19 17:30N 29°50' W 093°58'1 1.1
2018-Feb-19 17:00N 29°50' W 093°57'4 7.3
2018-Feb-19 16:30N 29°53' W 093°55'4 7.1
2018-Feb-19 16:00N 29°56' W 093°52'3 5.8
2018-Feb-19 15:30N 29°59' W 093°50'3 5.6
2018-Feb-19 15:00N 29°60' W 093°47'3 5.9
2018-Feb-19 14:30N 30°01' W 093°45'3 5.3
2018-Feb-19 14:00N 30°03' W 093°42'2 4.7
2018-Feb-19 13:30N 30°04' W 093°40'3 5.3
2018-Feb-19 13:00N 30°04' W 093°37'3 5.4
2018-Feb-19 12:30N 30°04' W 093°33'3 5.4
2018-Feb-19 12:00N 30°04' W 093°30'3 5.3
2018-Feb-19 11:30N 30°04' W 093°27'3 5.4
2018-Feb-19 11:00N 30°04' W 093°24'2 4.4
2018-Feb-19 10:30N 30°04' W 093°22'2 4.5
2018-Feb-19 10:00N 30°05' W 093°20'2 3.2
2018-Feb-19 09:29N 30°06' W 093°18'0 0.1
2018-Feb-19 09:00N 30°06' W 093°18'0 0.0
2018-Feb-19 08:30N 30°06' W 093°18'0 0.0
2018-Feb-19 08:00N 30°06' W 093°18'0 0.0
2018-Feb-19 07:30N 30°06' W 093°18'0 0.0
2018-Feb-19 06:59N 30°06' W 093°18'0 0.0
2018-Feb-19 06:30N 30°06' W 093°18'0 0.0
2018-Feb-19 06:00N 30°06' W 093°18'0 0.0
2018-Feb-19 05:30N 30°06' W 093°18'0 0.0
2018-Feb-19 05:00N 30°06' W 093°18'0 0.0
2018-Feb-19 04:30N 30°06' W 093°18'0 0.0
2018-Feb-19 04:00N 30°06' W 093°18'0 0.0
2018-Feb-19 03:28N 30°06' W 093°18'0 0.0
2018-Feb-19 03:00N 30°06' W 093°18'0 0.0
2018-Feb-19 02:30N 30°06' W 093°18'0 0.0
2018-Feb-19 02:00N 30°06' W 093°18'1 1.8
2018-Feb-19 01:30N 30°05' W 093°18'2 3.4
2018-Feb-19 01:00N 30°04' W 093°16'0 0.0
2018-Feb-19 00:30N 30°04' W 093°16'1 1.4
2018-Feb-19 00:00N 30°04' W 093°16'2 4.9
2018-Feb-18 23:30N 30°02' W 093°14'3 5.5
2018-Feb-18 23:00N 29°59' W 093°13'3 5.8
2018-Feb-18 22:30N 29°57' W 093°10'3 5.2
2018-Feb-18 22:00N 29°56' W 093°08'40 4.9
2018-Feb-18 13:49N 29°51' W 092°22'1 4.6
2018-Feb-18 13:30N 29°51' W 092°20'1 2.5
2018-Feb-18 12:55N 29°50' W 092°18'1 3.0
2018-Feb-18 12:30N 29°49' W 092°17'2 4.0
2018-Feb-18 12:00N 29°48' W 092°15'2 3.6
2018-Feb-18 11:30N 29°48' W 092°14'2 3.3
2018-Feb-18 11:00N 29°47' W 092°12'2 4.3
2018-Feb-18 10:30N 29°47' W 092°09'2 4.3
2018-Feb-18 10:00N 29°47' W 092°07'2 4.3
2018-Feb-18 09:30N 29°48' W 092°05'2 4.0
2018-Feb-18 09:00N 29°49' W 092°02'1 2.5
2018-Feb-18 08:25N 29°49' W 092°01'0 0.0
2018-Feb-18 07:42N 29°49' W 092°01'0 0.0
2018-Feb-18 06:03N 29°49' W 092°01'0 0.2
2018-Feb-18 05:59N 29°49' W 092°01'0 0.0
2018-Feb-18 05:30N 29°49' W 092°01'60 4.5
2018-Feb-17 16:13N 29°33' W 090°55'2 5.4
2018-Feb-17 15:55N 29°32' W 090°53'2 5.2
2018-Feb-17 15:30N 29°32' W 090°51'3 5.3
2018-Feb-17 15:00N 29°32' W 090°47'2 4.6
2018-Feb-17 14:30N 29°33' W 090°45'2 4.3
2018-Feb-17 14:00N 29°34' W 090°43'2 3.5
2018-Feb-17 13:30N 29°36' W 090°43'2 3.7
2018-Feb-17 13:00N 29°36' W 090°41'0 0.9
2018-Feb-17 12:30N 29°36' W 090°40'0 0.0
2018-Feb-17 12:00N 29°36' W 090°40'0 0.0
2018-Feb-17 11:30N 29°36' W 090°40'0 0.0
2018-Feb-17 11:00N 29°36' W 090°40'0 0.0
2018-Feb-17 10:30N 29°36' W 090°40'0 0.0
2018-Feb-17 10:00N 29°36' W 090°40'0 0.0
2018-Feb-17 09:30N 29°36' W 090°40'0 0.0
2018-Feb-17 09:00N 29°36' W 090°40'0 0.0
2018-Feb-17 08:30N 29°36' W 090°40'0 0.0
2018-Feb-17 08:00N 29°36' W 090°40'0 0.0
2018-Feb-17 07:30N 29°36' W 090°40'0 0.0
2018-Feb-17 07:00N 29°36' W 090°40'0 0.0
2018-Feb-17 06:30N 29°36' W 090°40'0 0.0
2018-Feb-17 06:00N 29°36' W 090°40'0 0.0
2018-Feb-17 05:30N 29°36' W 090°40'1 1.5
2018-Feb-17 05:00N 29°36' W 090°39'2 5.0
2018-Feb-17 04:30N 29°35' W 090°37'3 4.8
2018-Feb-17 03:59N 29°34' W 090°34'2 4.9
2018-Feb-17 03:30N 29°34' W 090°31'  

Dump ship's entire track history